sensor_id;sensor_type;location;lat;lon;timestamp;P1;durP1;ratioP1;P2;durP2;ratioP2
3433;SDS011;1730;41.932;25.548;2023-08-06T01:10:15;10.97;;;9.13;;
3433;SDS011;1730;41.932;25.548;2023-08-06T02:54:46;14.67;;;13.07;;
3433;SDS011;1730;41.932;25.548;2023-08-06T03:40:15;21.77;;;14.20;;
3433;SDS011;1730;41.932;25.548;2023-08-06T03:42:41;21.97;;;15.00;;
3433;SDS011;1730;41.932;25.548;2023-08-06T03:45:10;16.40;;;14.03;;
3433;SDS011;1730;41.932;25.548;2023-08-06T03:47:35;18.00;;;14.40;;
3433;SDS011;1730;41.932;25.548;2023-08-06T03:50:03;18.60;;;15.17;;
3433;SDS011;1730;41.932;25.548;2023-08-06T03:52:30;20.10;;;14.93;;
3433;SDS011;1730;41.932;25.548;2023-08-06T03:54:57;20.43;;;13.87;;
3433;SDS011;1730;41.932;25.548;2023-08-06T03:57:24;18.70;;;15.90;;
3433;SDS011;1730;41.932;25.548;2023-08-06T03:59:50;16.20;;;14.60;;
3433;SDS011;1730;41.932;25.548;2023-08-06T04:02:16;18.83;;;15.10;;
3433;SDS011;1730;41.932;25.548;2023-08-06T04:04:42;16.63;;;14.83;;
3433;SDS011;1730;41.932;25.548;2023-08-06T04:07:10;17.83;;;13.53;;
3433;SDS011;1730;41.932;25.548;2023-08-06T04:09:51;18.00;;;11.37;;
3433;SDS011;1730;41.932;25.548;2023-08-06T04:12:18;15.20;;;12.40;;
3433;SDS011;1730;41.932;25.548;2023-08-06T04:35:22;18.00;;;13.80;;
3433;SDS011;1730;41.932;25.548;2023-08-06T04:37:47;14.00;;;12.50;;
3433;SDS011;1730;41.932;25.548;2023-08-06T04:40:13;19.50;;;12.57;;
3433;SDS011;1730;41.932;25.548;2023-08-06T04:42:39;18.37;;;13.43;;
3433;SDS011;1730;41.932;25.548;2023-08-06T04:45:05;14.40;;;12.93;;
3433;SDS011;1730;41.932;25.548;2023-08-06T04:55:09;16.00;;;14.40;;
3433;SDS011;1730;41.932;25.548;2023-08-06T04:57:37;15.63;;;14.20;;
3433;SDS011;1730;41.932;25.548;2023-08-06T05:00:03;16.47;;;14.87;;
3433;SDS011;1730;41.932;25.548;2023-08-06T07:16:00;33.87;;;17.03;;
3433;SDS011;1730;41.932;25.548;2023-08-06T07:18:25;29.70;;;19.37;;
3433;SDS011;1730;41.932;25.548;2023-08-06T07:23:24;17.30;;;14.03;;
3433;SDS011;1730;41.932;25.548;2023-08-06T07:25:50;9.60;;;8.60;;
3433;SDS011;1730;41.932;25.548;2023-08-06T07:28:20;13.83;;;8.60;;
3433;SDS011;1730;41.932;25.548;2023-08-06T07:30:46;10.27;;;8.40;;
3433;SDS011;1730;41.932;25.548;2023-08-06T07:38:22;5.73;;;4.33;;
3433;SDS011;1730;41.932;25.548;2023-08-06T08:06:20;4.00;;;3.40;;
3433;SDS011;1730;41.932;25.548;2023-08-06T14:57:19;12.10;;;10.90;;
3433;SDS011;1730;41.932;25.548;2023-08-06T14:59:47;12.47;;;11.37;;
3433;SDS011;1730;41.932;25.548;2023-08-06T15:02:17;10.47;;;9.63;;
3433;SDS011;1730;41.932;25.548;2023-08-06T15:04:54;9.70;;;9.00;;
3433;SDS011;1730;41.932;25.548;2023-08-06T15:07:24;12.10;;;10.57;;
3433;SDS011;1730;41.932;25.548;2023-08-06T15:09:55;11.30;;;10.43;;
3433;SDS011;1730;41.932;25.548;2023-08-06T15:12:25;10.37;;;9.70;;
3433;SDS011;1730;41.932;25.548;2023-08-06T15:14:53;11.70;;;10.80;;
3433;SDS011;1730;41.932;25.548;2023-08-06T15:17:27;11.30;;;10.40;;
3433;SDS011;1730;41.932;25.548;2023-08-06T15:19:57;11.27;;;10.40;;
3433;SDS011;1730;41.932;25.548;2023-08-06T15:22:24;12.50;;;11.40;;
3433;SDS011;1730;41.932;25.548;2023-08-06T15:24:50;11.33;;;10.00;;
3433;SDS011;1730;41.932;25.548;2023-08-06T15:55:45;11.37;;;10.57;;
3433;SDS011;1730;41.932;25.548;2023-08-06T15:58:12;15.23;;;11.43;;
3433;SDS011;1730;41.932;25.548;2023-08-06T16:00:38;12.07;;;11.00;;
3433;SDS011;1730;41.932;25.548;2023-08-06T16:03:03;11.97;;;10.93;;
3433;SDS011;1730;41.932;25.548;2023-08-06T16:05:30;11.87;;;10.87;;
3433;SDS011;1730;41.932;25.548;2023-08-06T16:07:56;12.60;;;11.60;;
3433;SDS011;1730;41.932;25.548;2023-08-06T16:10:21;11.40;;;10.53;;
3433;SDS011;1730;41.932;25.548;2023-08-06T16:12:47;12.23;;;11.37;;
3433;SDS011;1730;41.932;25.548;2023-08-06T16:15:13;11.83;;;10.77;;
3433;SDS011;1730;41.932;25.548;2023-08-06T16:17:44;11.20;;;10.20;;
3433;SDS011;1730;41.932;25.548;2023-08-06T16:20:12;10.23;;;9.63;;
3433;SDS011;1730;41.932;25.548;2023-08-06T16:22:41;10.43;;;9.73;;
3433;SDS011;1730;41.932;25.548;2023-08-06T16:25:09;11.57;;;10.50;;
3433;SDS011;1730;41.932;25.548;2023-08-06T16:27:38;10.03;;;9.33;;
3433;SDS011;1730;41.932;25.548;2023-08-06T16:30:07;10.20;;;9.43;;
3433;SDS011;1730;41.932;25.548;2023-08-06T16:32:36;10.37;;;9.67;;
3433;SDS011;1730;41.932;25.548;2023-08-06T16:35:03;9.63;;;9.03;;
3433;SDS011;1730;41.932;25.548;2023-08-06T16:37:29;10.30;;;9.60;;
3433;SDS011;1730;41.932;25.548;2023-08-06T16:39:57;10.50;;;9.70;;
3433;SDS011;1730;41.932;25.548;2023-08-06T16:42:22;10.83;;;10.13;;
3433;SDS011;1730;41.932;25.548;2023-08-06T16:44:48;12.37;;;11.27;;
3433;SDS011;1730;41.932;25.548;2023-08-06T16:47:14;10.60;;;9.53;;
3433;SDS011;1730;41.932;25.548;2023-08-06T16:49:41;20.63;;;15.40;;
3433;SDS011;1730;41.932;25.548;2023-08-06T16:52:14;26.13;;;17.90;;
3433;SDS011;1730;41.932;25.548;2023-08-06T17:32:37;26.10;;;20.63;;
3433;SDS011;1730;41.932;25.548;2023-08-06T17:35:05;41.07;;;26.00;;
3433;SDS011;1730;41.932;25.548;2023-08-06T17:37:41;21.43;;;17.70;;
3433;SDS011;1730;41.932;25.548;2023-08-06T17:40:07;40.73;;;26.97;;
3433;SDS011;1730;41.932;25.548;2023-08-06T17:42:35;31.20;;;22.57;;
3433;SDS011;1730;41.932;25.548;2023-08-06T17:45:05;115.67;;;57.43;;
3433;SDS011;1730;41.932;25.548;2023-08-06T17:47:34;53.37;;;32.80;;
3433;SDS011;1730;41.932;25.548;2023-08-06T17:49:59;39.67;;;28.10;;
3433;SDS011;1730;41.932;25.548;2023-08-06T17:52:59;40.57;;;26.90;;
